sensor_id;sensor_type;location;lat;lon;timestamp;temperature;humidity
20946;DHT22;10632;51.276;7.116;2023-03-01T00:01:16;-0.70;99.90
20946;DHT22;10632;51.276;7.116;2023-03-01T00:03:43;-0.70;99.90
20946;DHT22;10632;51.276;7.116;2023-03-01T00:06:11;-0.80;99.90
20946;DHT22;10632;51.276;7.116;2023-03-01T00:08:38;-0.80;99.90
20946;DHT22;10632;51.276;7.116;2023-03-01T00:11:09;-0.80;99.90
20946;DHT22;10632;51.276;7.116;2023-03-01T00:13:36;-0.80;99.90
20946;DHT22;10632;51.276;7.116;2023-03-01T00:16:04;-0.80;99.90
20946;DHT22;10632;51.276;7.116;2023-03-01T00:18:31;-0.80;99.90
20946;DHT22;10632;51.276;7.116;2023-03-01T00:20:59;-0.80;99.90
20946;DHT22;10632;51.276;7.116;2023-03-01T00:23:26;-0.80;99.90
20946;DHT22;10632;51.276;7.116;2023-03-01T00:25:54;-0.90;99.90
20946;DHT22;10632;51.276;7.116;2023-03-01T00:28:23;-0.90;99.90
20946;DHT22;10632;51.276;7.116;2023-03-01T00:30:50;-0.90;99.90
20946;DHT22;10632;51.276;7.116;2023-03-01T00:33:27;-0.90;99.90
20946;DHT22;10632;51.276;7.116;2023-03-01T00:35:54;-1.00;99.90
20946;DHT22;10632;51.276;7.116;2023-03-01T00:38:21;-1.00;99.90
20946;DHT22;10632;51.276;7.116;2023-03-01T00:40:49;-1.00;99.90
20946;DHT22;10632;51.276;7.116;2023-03-01T00:43:15;-1.00;99.90
20946;DHT22;10632;51.276;7.116;2023-03-01T00:45:44;-1.00;99.90
20946;DHT22;10632;51.276;7.116;2023-03-01T00:48:11;-1.00;99.90
20946;DHT22;10632;51.276;7.116;2023-03-01T00:50:38;-1.00;99.90
20946;DHT22;10632;51.276;7.116;2023-03-01T00:53:07;-1.00;99.90
20946;DHT22;10632;51.276;7.116;2023-03-01T00:55:34;-1.00;99.90
20946;DHT22;10632;51.276;7.116;2023-03-01T00:58:08;-1.00;99.90
20946;DHT22;10632;51.276;7.116;2023-03-01T01:00:35;-1.10;99.90
20946;DHT22;10632;51.276;7.116;2023-03-01T01:03:06;-1.10;99.90
20946;DHT22;10632;51.276;7.116;2023-03-01T01:05:34;-1.10;99.90
20946;DHT22;10632;51.276;7.116;2023-03-01T01:08:01;-1.10;99.90
20946;DHT22;10632;51.276;7.116;2023-03-01T01:10:28;-1.10;99.90
20946;DHT22;10632;51.276;7.116;2023-03-01T01:12:55;-1.10;99.90
20946;DHT22;10632;51.276;7.116;2023-03-01T01:15:22;-1.10;99.90
20946;DHT22;10632;51.276;7.116;2023-03-01T01:17:48;-1.10;99.90
20946;DHT22;10632;51.276;7.116;2023-03-01T01:20:17;-1.20;99.90
20946;DHT22;10632;51.276;7.116;2023-03-01T01:22:44;-1.10;99.90
20946;DHT22;10632;51.276;7.116;2023-03-01T01:25:11;-1.20;99.90
20946;DHT22;10632;51.276;7.116;2023-03-01T01:27:38;-1.20;99.90
20946;DHT22;10632;51.276;7.116;2023-03-01T01:30:06;-1.20;99.90
20946;DHT22;10632;51.276;7.116;2023-03-01T01:32:33;-1.20;99.90
20946;DHT22;10632;51.276;7.116;2023-03-01T01:35:00;-1.20;99.90
20946;DHT22;10632;51.276;7.116;2023-03-01T01:37:28;-1.20;99.90
20946;DHT22;10632;51.276;7.116;2023-03-01T01:39:59;-1.20;99.90
20946;DHT22;10632;51.276;7.116;2023-03-01T01:42:27;-1.20;99.90
20946;DHT22;10632;51.276;7.116;2023-03-01T01:45:24;-1.30;99.90
20946;DHT22;10632;51.276;7.116;2023-03-01T01:47:53;-1.30;99.90
20946;DHT22;10632;51.276;7.116;2023-03-01T01:50:21;-1.30;99.90
20946;DHT22;10632;51.276;7.116;2023-03-01T01:52:50;-1.30;99.90
20946;DHT22;10632;51.276;7.116;2023-03-01T01:55:22;-1.30;99.90
20946;DHT22;10632;51.276;7.116;2023-03-01T01:57:52;-1.30;99.90
20946;DHT22;10632;51.276;7.116;2023-03-01T02:00:21;-1.40;99.90
20946;DHT22;10632;51.276;7.116;2023-03-01T02:02:51;-1.30;99.90
20946;DHT22;10632;51.276;7.116;2023-03-01T02:05:24;-1.40;99.90
20946;DHT22;10632;51.276;7.116;2023-03-01T02:07:54;-1.40;99.90
20946;DHT22;10632;51.276;7.116;2023-03-01T02:10:22;-1.40;99.90
20946;DHT22;10632;51.276;7.116;2023-03-01T02:12:50;-1.40;99.90
20946;DHT22;10632;51.276;7.116;2023-03-01T02:15:19;-1.40;99.90
20946;DHT22;10632;51.276;7.116;2023-03-01T02:17:48;-1.40;99.90
20946;DHT22;10632;51.276;7.116;2023-03-01T02:20:19;-1.40;99.90
20946;DHT22;10632;51.276;7.116;2023-03-01T02:22:49;-1.50;99.90
20946;DHT22;10632;51.276;7.116;2023-03-01T02:25:28;-1.50;99.90
20946;DHT22;10632;51.276;7.116;2023-03-01T02:28:08;-1.50;99.90
20946;DHT22;10632;51.276;7.116;2023-03-01T02:30:44;-1.50;99.90
20946;DHT22;10632;51.276;7.116;2023-03-01T02:33:26;-1.50;99.90
20946;DHT22;10632;51.276;7.116;2023-03-01T02:35:54;-1.50;99.90
20946;DHT22;10632;51.276;7.116;2023-03-01T02:38:22;-1.50;99.90
20946;DHT22;10632;51.276;7.116;2023-03-01T02:40:50;-1.50;99.90
20946;DHT22;10632;51.276;7.116;2023-03-01T02:43:26;-1.50;99.90
20946;DHT22;10632;51.276;7.116;2023-03-01T02:45:58;-1.60;99.90
20946;DHT22;10632;51.276;7.116;2023-03-01T02:48:26;-1.60;99.90
20946;DHT22;10632;51.276;7.116;2023-03-01T02:51:03;-1.60;99.90
20946;DHT22;10632;51.276;7.116;2023-03-01T02:53:39;-1.60;99.90
20946;DHT22;10632;51.276;7.116;2023-03-01T02:56:08;-1.60;99.90
20946;DHT22;10632;51.276;7.116;2023-03-01T02:58:38;-1.70;99.90
20946;DHT22;10632;51.276;7.116;2023-03-01T03:01:12;-1.60;99.90
20946;DHT22;10632;51.276;7.116;2023-03-01T03:03:41;-1.70;99.90
20946;DHT22;10632;51.276;7.116;2023-03-01T03:06:11;-1.70;99.90
20946;DHT22;10632;51.276;7.116;2023-03-01T03:08:38;-1.70;99.90
20946;DHT22;10632;51.276;7.116;2023-03-01T03:11:05;-1.80;99.90
20946;DHT22;10632;51.276;7.116;2023-03-01T03:13:34;-1.80;99.90
20946;DHT22;10632;51.276;7.116;2023-03-01T03:16:02;-1.80;99.90
20946;DHT22;10632;51.276;7.116;2023-03-01T03:18:31;-1.80;99.90
20946;DHT22;10632;51.276;7.116;2023-03-01T03:20:58;-1.80;99.90
20946;DHT22;10632;51.276;7.116;2023-03-01T03:23:25;-1.80;99.90
20946;DHT22;10632;51.276;7.116;2023-03-01T03:25:52;-1.80;99.90
20946;DHT22;10632;51.276;7.116;2023-03-01T03:28:19;-1.90;99.90
20946;DHT22;10632;51.276;7.116;2023-03-01T03:30:46;-1.90;99.90
20946;DHT22;10632;51.276;7.116;2023-03-01T03:33:18;-1.90;99.90
20946;DHT22;10632;51.276;7.116;2023-03-01T03:35:48;-1.90;99.90
20946;DHT22;10632;51.276;7.116;2023-03-01T03:38:17;-2.00;99.90
20946;DHT22;10632;51.276;7.116;2023-03-01T03:40:49;-1.90;99.90
20946;DHT22;10632;51.276;7.116;2023-03-01T03:43:18;-2.00;99.90
20946;DHT22;10632;51.276;7.116;2023-03-01T03:45:45;-2.00;99.90
20946;DHT22;10632;51.276;7.116;2023-03-01T03:48:13;-2.00;99.90
20946;DHT22;10632;51.276;7.116;2023-03-01T03:50:41;-2.00;99.90
20946;DHT22;10632;51.276;7.116;2023-03-01T03:53:12;-2.00;99.90
20946;DHT22;10632;51.276;7.116;2023-03-01T03:55:39;-2.00;99.90
20946;DHT22;10632;51.276;7.116;2023-03-01T03:58:09;-2.00;99.90
20946;DHT22;10632;51.276;7.116;2023-03-01T04:00:40;-2.00;99.90
20946;DHT22;10632;51.276;7.116;2023-03-01T04:03:08;-2.10;99.90
20946;DHT22;10632;51.276;7.116;2023-03-01T04:05:36;-2.00;99.90
20946;DHT22;10632;51.276;7.116;2023-03-01T04:08:06;-2.10;99.90
20946;DHT22;10632;51.276;7.116;2023-03-01T04:10:38;-2.10;99.90
20946;DHT22;10632;51.276;7.116;2023-03-01T04:13:07;-2.00;99.90
20946;DHT22;10632;51.276;7.116;2023-03-01T04:15:35;-2.10;99.90
20946;DHT22;10632;51.276;7.116;2023-03-01T04:18:03;-2.10;99.90
20946;DHT22;10632;51.276;7.116;2023-03-01T04:20:32;-2.10;99.90
20946;DHT22;10632;51.276;7.116;2023-03-01T04:23:01;-2.10;99.90
20946;DHT22;10632;51.276;7.116;2023-03-01T04:25:38;-2.10;99.90
20946;DHT22;10632;51.276;7.116;2023-03-01T04:28:09;-2.20;99.90
20946;DHT22;10632;51.276;7.116;2023-03-01T04:30:36;-2.20;99.90
20946;DHT22;10632;51.276;7.116;2023-03-01T04:33:04;-2.20;99.90
20946;DHT22;10632;51.276;7.116;2023-03-01T04:35:32;-2.20;99.90
20946;DHT22;10632;51.276;7.116;2023-03-01T04:37:59;-2.20;99.90
20946;DHT22;10632;51.276;7.116;2023-03-01T04:40:28;-2.20;99.90
20946;DHT22;10632;51.276;7.116;2023-03-01T04:42:56;-2.30;99.90
20946;DHT22;10632;51.276;7.116;2023-03-01T04:45:23;-2.30;99.90
20946;DHT22;10632;51.276;7.116;2023-03-01T04:47:54;-2.30;99.90
20946;DHT22;10632;51.276;7.116;2023-03-01T04:50:23;-2.30;99.90
20946;DHT22;10632;51.276;7.116;2023-03-01T04:52:51;-2.30;99.90
20946;DHT22;10632;51.276;7.116;2023-03-01T04:55:19;-2.30;99.90
20946;DHT22;10632;51.276;7.116;2023-03-01T04:57:45;-2.40;99.90
20946;DHT22;10632;51.276;7.116;2023-03-01T05:00:15;-2.40;99.90
20946;DHT22;10632;51.276;7.116;2023-03-01T05:02:50;-2.40;99.90
20946;DHT22;10632;51.276;7.116;2023-03-01T05:05:24;-2.30;99.90
20946;DHT22;10632;51.276;7.116;2023-03-01T05:07:56;-2.40;99.90
20946;DHT22;10632;51.276;7.116;2023-03-01T05:10:24;-2.30;99.90
20946;DHT22;10632;51.276;7.116;2023-03-01T05:12:51;-2.40;99.90
20946;DHT22;10632;51.276;7.116;2023-03-01T05:15:20;-2.40;99.90
20946;DHT22;10632;51.276;7.116;2023-03-01T05:17:58;-2.40;99.90
20946;DHT22;10632;51.276;7.116;2023-03-01T05:20:25;-2.40;99.90
20946;DHT22;10632;51.276;7.116;2023-03-01T05:22:59;-2.40;99.90
20946;DHT22;10632;51.276;7.116;2023-03-01T05:25:31;-2.40;99.90
20946;DHT22;10632;51.276;7.116;2023-03-01T05:28:06;-2.40;99.90
20946;DHT22;10632;51.276;7.116;2023-03-01T05:30:34;-2.50;99.90
20946;DHT22;10632;51.276;7.116;2023-03-01T05:33:02;-2.40;99.90
20946;DHT22;10632;51.276;7.116;2023-03-01T05:35:29;-2.40;99.90
20946;DHT22;10632;51.276;7.116;2023-03-01T05:37:58;-2.40;99.90
20946;DHT22;10632;51.276;7.116;2023-03-01T05:40:25;-2.40;99.90
20946;DHT22;10632;51.276;7.116;2023-03-01T05:42:53;-2.50;99.90
20946;DHT22;10632;51.276;7.116;2023-03-01T05:45:22;-2.50;99.90
20946;DHT22;10632;51.276;7.116;2023-03-01T05:47:50;-2.50;99.90
20946;DHT22;10632;51.276;7.116;2023-03-01T05:50:20;-2.50;99.90
20946;DHT22;10632;51.276;7.116;2023-03-01T05:52:47;-2.50;99.90
20946;DHT22;10632;51.276;7.116;2023-03-01T05:55:15;-2.50;99.90
20946;DHT22;10632;51.276;7.116;2023-03-01T05:57:44;-2.50;99.90
20946;DHT22;10632;51.276;7.116;2023-03-01T06:00:13;-2.50;99.90
20946;DHT22;10632;51.276;7.116;2023-03-01T06:02:42;-2.50;99.90
20946;DHT22;10632;51.276;7.116;2023-03-01T06:05:12;-2.60;99.90
20946;DHT22;10632;51.276;7.116;2023-03-01T06:07:40;-2.60;99.90
20946;DHT22;10632;51.276;7.116;2023-03-01T06:10:11;-2.60;99.90
20946;DHT22;10632;51.276;7.116;2023-03-01T06:12:42;-2.60;99.90
20946;DHT22;10632;51.276;7.116;2023-03-01T06:15:10;-2.60;99.90
20946;DHT22;10632;51.276;7.116;2023-03-01T06:17:41;-2.60;99.90
20946;DHT22;10632;51.276;7.116;2023-03-01T06:20:14;-2.70;99.90
20946;DHT22;10632;51.276;7.116;2023-03-01T06:22:43;-2.70;99.90
20946;DHT22;10632;51.276;7.116;2023-03-01T06:25:12;-2.70;99.90
20946;DHT22;10632;51.276;7.116;2023-03-01T06:27:43;-2.70;99.90
20946;DHT22;10632;51.276;7.116;2023-03-01T06:30:12;-2.70;99.90
20946;DHT22;10632;51.276;7.116;2023-03-01T06:32:45;-2.70;99.90
20946;DHT22;10632;51.276;7.116;2023-03-01T06:35:19;-2.70;99.90
20946;DHT22;10632;51.276;7.116;2023-03-01T06:37:49;-2.70;99.90
20946;DHT22;10632;51.276;7.116;2023-03-01T06:40:16;-2.70;99.90
20946;DHT22;10632;51.276;7.116;2023-03-01T06:42:49;-2.60;99.90
20946;DHT22;10632;51.276;7.116;2023-03-01T06:45:17;-2.70;99.90
20946;DHT22;10632;51.276;7.116;2023-03-01T06:47:44;-2.60;99.90
20946;DHT22;10632;51.276;7.116;2023-03-01T06:50:12;-2.60;99.90
20946;DHT22;10632;51.276;7.116;2023-03-01T06:52:41;-2.60;99.90
20946;DHT22;10632;51.276;7.116;2023-03-01T06:55:10;-2.60;99.90
20946;DHT22;10632;51.276;7.116;2023-03-01T06:57:40;-2.60;99.90
20946;DHT22;10632;51.276;7.116;2023-03-01T07:00:08;-2.60;99.90
20946;DHT22;10632;51.276;7.116;2023-03-01T07:02:35;-2.60;99.90
20946;DHT22;10632;51.276;7.116;2023-03-01T07:05:02;-2.60;99.90
20946;DHT22;10632;51.276;7.116;2023-03-01T07:07:29;-2.50;99.90
20946;DHT22;10632;51.276;7.116;2023-03-01T07:09:57;-2.50;99.90
20946;DHT22;10632;51.276;7.116;2023-03-01T07:12:24;-2.50;99.90
20946;DHT22;10632;51.276;7.116;2023-03-01T07:14:51;-2.50;99.90
20946;DHT22;10632;51.276;7.116;2023-03-01T07:17:20;-2.40;99.90
20946;DHT22;10632;51.276;7.116;2023-03-01T07:19:47;-2.40;99.90
20946;DHT22;10632;51.276;7.116;2023-03-01T07:22:14;-2.40;99.90
20946;DHT22;10632;51.276;7.116;2023-03-01T07:24:41;-2.30;99.90
20946;DHT22;10632;51.276;7.116;2023-03-01T07:27:09;-2.30;99.90
20946;DHT22;10632;51.276;7.116;2023-03-01T07:29:36;-2.30;99.90
20946;DHT22;10632;51.276;7.116;2023-03-01T07:32:04;-2.20;99.90
20946;DHT22;10632;51.276;7.116;2023-03-01T07:34:31;-2.20;99.90
20946;DHT22;10632;51.276;7.116;2023-03-01T07:37:00;-2.10;99.90
20946;DHT22;10632;51.276;7.116;2023-03-01T07:39:27;-2.10;99.90
20946;DHT22;10632;51.276;7.116;2023-03-01T07:41:53;-2.10;99.90
20946;DHT22;10632;51.276;7.116;2023-03-01T07:44:22;-2.00;99.90
20946;DHT22;10632;51.276;7.116;2023-03-01T07:46:49;-1.90;99.90
20946;DHT22;10632;51.276;7.116;2023-03-01T07:49:17;-1.90;99.90
20946;DHT22;10632;51.276;7.116;2023-03-01T07:51:44;-1.80;99.90
20946;DHT22;10632;51.276;7.116;2023-03-01T07:54:13;-1.80;99.90
20946;DHT22;10632;51.276;7.116;2023-03-01T07:56:40;-1.70;99.90
20946;DHT22;10632;51.276;7.116;2023-03-01T07:59:07;-1.60;99.90
20946;DHT22;10632;51.276;7.116;2023-03-01T08:01:38;-1.50;99.90
20946;DHT22;10632;51.276;7.116;2023-03-01T08:04:08;-1.40;99.90
20946;DHT22;10632;51.276;7.116;2023-03-01T08:06:36;-1.30;99.90
20946;DHT22;10632;51.276;7.116;2023-03-01T08:09:03;-1.30;99.90
20946;DHT22;10632;51.276;7.116;2023-03-01T08:11:30;-1.20;99.90
20946;DHT22;10632;51.276;7.116;2023-03-01T08:13:57;-1.00;99.90
20946;DHT22;10632;51.276;7.116;2023-03-01T08:16:27;-1.00;99.90
20946;DHT22;10632;51.276;7.116;2023-03-01T08:18:55;-0.90;99.90
20946;DHT22;10632;51.276;7.116;2023-03-01T08:21:26;-0.80;99.90
20946;DHT22;10632;51.276;7.116;2023-03-01T08:23:53;-0.70;99.90
20946;DHT22;10632;51.276;7.116;2023-03-01T08:26:24;-0.60;99.90
20946;DHT22;10632;51.276;7.116;2023-03-01T08:28:56;-0.50;99.90
20946;DHT22;10632;51.276;7.116;2023-03-01T08:31:25;-0.40;99.90
20946;DHT22;10632;51.276;7.116;2023-03-01T08:33:56;-0.30;99.90
20946;DHT22;10632;51.276;7.116;2023-03-01T08:36:26;-0.20;99.90
20946;DHT22;10632;51.276;7.116;2023-03-01T08:38:56;-0.20;99.90
20946;DHT22;10632;51.276;7.116;2023-03-01T08:41:24;-0.10;99.90
20946;DHT22;10632;51.276;7.116;2023-03-01T08:43:51;0.00;99.90
20946;DHT22;10632;51.276;7.116;2023-03-01T08:46:18;0.10;99.90
20946;DHT22;10632;51.276;7.116;2023-03-01T08:48:45;0.20;99.90
20946;DHT22;10632;51.276;7.116;2023-03-01T08:51:18;0.30;99.90
20946;DHT22;10632;51.276;7.116;2023-03-01T08:53:45;0.30;99.90
20946;DHT22;10632;51.276;7.116;2023-03-01T08:56:13;0.40;99.90
20946;DHT22;10632;51.276;7.116;2023-03-01T08:58:50;0.50;99.90
20946;DHT22;10632;51.276;7.116;2023-03-01T09:01:18;0.60;99.90
20946;DHT22;10632;51.276;7.116;2023-03-01T09:03:46;0.70;99.90
20946;DHT22;10632;51.276;7.116;2023-03-01T09:06:14;0.90;99.90
20946;DHT22;10632;51.276;7.116;2023-03-01T09:08:44;1.00;99.90
20946;DHT22;10632;51.276;7.116;2023-03-01T09:11:13;1.10;99.90
20946;DHT22;10632;51.276;7.116;2023-03-01T09:13:42;1.30;99.90
20946;DHT22;10632;51.276;7.116;2023-03-01T09:16:11;1.40;99.90
20946;DHT22;10632;51.276;7.116;2023-03-01T09:18:41;1.50;99.90
20946;DHT22;10632;51.276;7.116;2023-03-01T09:21:09;1.50;99.90
20946;DHT22;10632;51.276;7.116;2023-03-01T09:23:38;1.60;99.90
20946;DHT22;10632;51.276;7.116;2023-03-01T09:26:07;1.60;99.90
20946;DHT22;10632;51.276;7.116;2023-03-01T09:28:35;1.70;99.90
20946;DHT22;10632;51.276;7.116;2023-03-01T09:31:04;1.70;99.90
20946;DHT22;10632;51.276;7.116;2023-03-01T09:33:32;1.80;99.90
20946;DHT22;10632;51.276;7.116;2023-03-01T09:36:02;1.90;99.90
20946;DHT22;10632;51.276;7.116;2023-03-01T09:38:32;1.90;99.90
20946;DHT22;10632;51.276;7.116;2023-03-01T09:40:59;2.10;99.90
20946;DHT22;10632;51.276;7.116;2023-03-01T09:43:34;2.20;99.90
20946;DHT22;10632;51.276;7.116;2023-03-01T09:46:08;2.30;99.90
20946;DHT22;10632;51.276;7.116;2023-03-01T09:48:41;2.40;99.90
20946;DHT22;10632;51.276;7.116;2023-03-01T09:51:14;2.50;99.90
20946;DHT22;10632;51.276;7.116;2023-03-01T09:53:47;2.60;99.90
20946;DHT22;10632;51.276;7.116;2023-03-01T09:56:17;2.80;99.90
20946;DHT22;10632;51.276;7.116;2023-03-01T09:58:52;2.90;99.90
20946;DHT22;10632;51.276;7.116;2023-03-01T10:01:32;2.90;99.90
20946;DHT22;10632;51.276;7.116;2023-03-01T10:04:11;3.00;99.90
20946;DHT22;10632;51.276;7.116;2023-03-01T10:06:45;3.00;99.90
20946;DHT22;10632;51.276;7.116;2023-03-01T10:09:19;3.00;99.90
20946;DHT22;10632;51.276;7.116;2023-03-01T10:11:49;3.00;99.90
20946;DHT22;10632;51.276;7.116;2023-03-01T10:14:34;3.10;99.90
20946;DHT22;10632;51.276;7.116;2023-03-01T10:17:08;3.20;99.90
20946;DHT22;10632;51.276;7.116;2023-03-01T10:19:44;3.30;99.90
20946;DHT22;10632;51.276;7.116;2023-03-01T10:22:15;3.30;99.90
20946;DHT22;10632;51.276;7.116;2023-03-01T10:24:43;3.40;99.90
20946;DHT22;10632;51.276;7.116;2023-03-01T10:27:17;3.60;99.90
20946;DHT22;10632;51.276;7.116;2023-03-01T10:29:58;3.80;99.90
20946;DHT22;10632;51.276;7.116;2023-03-01T10:32:32;3.90;99.90
20946;DHT22;10632;51.276;7.116;2023-03-01T10:35:16;4.10;99.90
20946;DHT22;10632;51.276;7.116;2023-03-01T10:37:57;4.10;99.90
20946;DHT22;10632;51.276;7.116;2023-03-01T10:40:24;4.30;99.90
20946;DHT22;10632;51.276;7.116;2023-03-01T10:42:51;4.40;99.90
20946;DHT22;10632;51.276;7.116;2023-03-01T10:45:32;4.50;99.90
20946;DHT22;10632;51.276;7.116;2023-03-01T10:48:12;4.60;99.90
20946;DHT22;10632;51.276;7.116;2023-03-01T10:50:40;4.80;99.90
20946;DHT22;10632;51.276;7.116;2023-03-01T10:53:23;4.90;99.90
20946;DHT22;10632;51.276;7.116;2023-03-01T10:56:03;5.10;99.90
20946;DHT22;10632;51.276;7.116;2023-03-01T10:58:34;5.10;99.90
20946;DHT22;10632;51.276;7.116;2023-03-01T11:01:27;5.20;99.90
20946;DHT22;10632;51.276;7.116;2023-03-01T11:04:10;5.30;99.90
20946;DHT22;10632;51.276;7.116;2023-03-01T11:06:39;5.30;99.90
20946;DHT22;10632;51.276;7.116;2023-03-01T11:09:14;5.50;99.90
20946;DHT22;10632;51.276;7.116;2023-03-01T11:11:45;5.50;99.90
20946;DHT22;10632;51.276;7.116;2023-03-01T11:14:16;5.70;99.90
20946;DHT22;10632;51.276;7.116;2023-03-01T11:16:59;5.80;99.90
20946;DHT22;10632;51.276;7.116;2023-03-01T11:19:28;5.90;99.90
20946;DHT22;10632;51.276;7.116;2023-03-01T11:22:01;6.00;99.90
20946;DHT22;10632;51.276;7.116;2023-03-01T11:24:38;6.10;99.90
20946;DHT22;10632;51.276;7.116;2023-03-01T11:27:18;6.10;99.90
20946;DHT22;10632;51.276;7.116;2023-03-01T11:29:48;6.10;99.90
20946;DHT22;10632;51.276;7.116;2023-03-01T11:32:20;6.20;99.90
20946;DHT22;10632;51.276;7.116;2023-03-01T11:34:55;6.30;99.90
20946;DHT22;10632;51.276;7.116;2023-03-01T11:37:31;6.40;99.90
20946;DHT22;10632;51.276;7.116;2023-03-01T11:40:10;6.60;99.90
20946;DHT22;10632;51.276;7.116;2023-03-01T11:42:47;6.80;99.90
20946;DHT22;10632;51.276;7.116;2023-03-01T11:45:17;7.00;99.90
20946;DHT22;10632;51.276;7.116;2023-03-01T11:47:58;7.20;99.90
20946;DHT22;10632;51.276;7.116;2023-03-01T11:50:30;7.30;99.80
20946;DHT22;10632;51.276;7.116;2023-03-01T11:56:07;7.70;99.60
20946;DHT22;10632;51.276;7.116;2023-03-01T12:01:32;7.70;98.70
20946;DHT22;10632;51.276;7.116;2023-03-01T12:04:40;7.70;98.40
20946;DHT22;10632;51.276;7.116;2023-03-01T12:07:18;7.80;98.90
20946;DHT22;10632;51.276;7.116;2023-03-01T12:09:59;8.10;98.90
20946;DHT22;10632;51.276;7.116;2023-03-01T12:12:47;8.20;97.20
20946;DHT22;10632;51.276;7.116;2023-03-01T12:15:34;8.40;97.50
20946;DHT22;10632;51.276;7.116;2023-03-01T12:18:29;8.60;96.90
20946;DHT22;10632;51.276;7.116;2023-03-01T12:21:11;8.90;97.30
20946;DHT22;10632;51.276;7.116;2023-03-01T12:24:08;9.20;96.90
20946;DHT22;10632;51.276;7.116;2023-03-01T12:26:47;9.50;96.10
20946;DHT22;10632;51.276;7.116;2023-03-01T12:29:26;9.80;95.50
20946;DHT22;10632;51.276;7.116;2023-03-01T12:32:15;9.90;94.80
20946;DHT22;10632;51.276;7.116;2023-03-01T12:35:05;10.00;93.90
20946;DHT22;10632;51.276;7.116;2023-03-01T12:37:42;10.10;93.90
20946;DHT22;10632;51.276;7.116;2023-03-01T12:40:40;9.90;93.20
20946;DHT22;10632;51.276;7.116;2023-03-01T12:43:24;10.00;93.50
20946;DHT22;10632;51.276;7.116;2023-03-01T12:46:04;10.00;93.10
20946;DHT22;10632;51.276;7.116;2023-03-01T12:48:43;10.00;93.10
20946;DHT22;10632;51.276;7.116;2023-03-01T12:51:20;10.10;93.80
20946;DHT22;10632;51.276;7.116;2023-03-01T12:53:55;10.20;94.00
20946;DHT22;10632;51.276;7.116;2023-03-01T12:56:26;10.40;93.10
20946;DHT22;10632;51.276;7.116;2023-03-01T12:59:04;10.40;93.30
20946;DHT22;10632;51.276;7.116;2023-03-01T13:01:43;10.40;93.90
20946;DHT22;10632;51.276;7.116;2023-03-01T13:04:20;10.50;94.40
20946;DHT22;10632;51.276;7.116;2023-03-01T13:06:58;10.40;93.20
20946;DHT22;10632;51.276;7.116;2023-03-01T13:09:39;10.20;94.20
20946;DHT22;10632;51.276;7.116;2023-03-01T13:15:33;10.10;93.90
20946;DHT22;10632;51.276;7.116;2023-03-01T13:18:03;10.00;94.30
20946;DHT22;10632;51.276;7.116;2023-03-01T13:20:33;10.00;94.10
20946;DHT22;10632;51.276;7.116;2023-03-01T13:23:04;10.00;94.10
20946;DHT22;10632;51.276;7.116;2023-03-01T13:25:34;9.90;93.90
20946;DHT22;10632;51.276;7.116;2023-03-01T13:28:36;9.80;94.40
20946;DHT22;10632;51.276;7.116;2023-03-01T13:31:07;9.90;93.90
20946;DHT22;10632;51.276;7.116;2023-03-01T13:33:44;9.80;93.80
20946;DHT22;10632;51.276;7.116;2023-03-01T13:36:47;9.80;94.60
20946;DHT22;10632;51.276;7.116;2023-03-01T13:39:31;10.00;94.30
20946;DHT22;10632;51.276;7.116;2023-03-01T13:42:33;10.00;93.40
20946;DHT22;10632;51.276;7.116;2023-03-01T13:45:04;10.10;93.80
20946;DHT22;10632;51.276;7.116;2023-03-01T13:47:34;10.10;93.80
20946;DHT22;10632;51.276;7.116;2023-03-01T13:50:04;10.20;94.10
20946;DHT22;10632;51.276;7.116;2023-03-01T13:52:38;10.20;94.00
20946;DHT22;10632;51.276;7.116;2023-03-01T13:55:16;10.10;93.30
20946;DHT22;10632;51.276;7.116;2023-03-01T13:57:47;9.90;93.70
20946;DHT22;10632;51.276;7.116;2023-03-01T14:00:31;9.70;94.00
20946;DHT22;10632;51.276;7.116;2023-03-01T14:03:14;9.40;94.10
20946;DHT22;10632;51.276;7.116;2023-03-01T14:05:43;9.10;94.30
20946;DHT22;10632;51.276;7.116;2023-03-01T14:08:22;8.70;95.10
20946;DHT22;10632;51.276;7.116;2023-03-01T14:13:59;8.50;95.80
20946;DHT22;10632;51.276;7.116;2023-03-01T14:16:39;8.30;95.60
20946;DHT22;10632;51.276;7.116;2023-03-01T14:19:15;7.90;94.90
20946;DHT22;10632;51.276;7.116;2023-03-01T14:21:45;7.60;95.00
20946;DHT22;10632;51.276;7.116;2023-03-01T14:24:18;7.40;96.50
20946;DHT22;10632;51.276;7.116;2023-03-01T14:26:47;7.30;98.90
20946;DHT22;10632;51.276;7.116;2023-03-01T14:29:26;7.30;97.10
20946;DHT22;10632;51.276;7.116;2023-03-01T14:31:54;7.20;96.50
20946;DHT22;10632;51.276;7.116;2023-03-01T14:34:21;7.10;96.50
20946;DHT22;10632;51.276;7.116;2023-03-01T14:36:49;7.00;97.00
20946;DHT22;10632;51.276;7.116;2023-03-01T14:39:17;6.90;97.20
20946;DHT22;10632;51.276;7.116;2023-03-01T14:41:48;6.70;96.70
20946;DHT22;10632;51.276;7.116;2023-03-01T14:44:20;6.60;96.60
20946;DHT22;10632;51.276;7.116;2023-03-01T14:46:54;6.50;96.70
20946;DHT22;10632;51.276;7.116;2023-03-01T14:49:25;6.40;96.70
20946;DHT22;10632;51.276;7.116;2023-03-01T14:51:56;6.30;97.10
20946;DHT22;10632;51.276;7.116;2023-03-01T14:54:26;6.20;97.20
20946;DHT22;10632;51.276;7.116;2023-03-01T14:56:58;6.20;98.00
20946;DHT22;10632;51.276;7.116;2023-03-01T14:59:26;6.10;98.00
20946;DHT22;10632;51.276;7.116;2023-03-01T15:01:56;6.10;98.20
20946;DHT22;10632;51.276;7.116;2023-03-01T15:04:26;6.10;98.80
20946;DHT22;10632;51.276;7.116;2023-03-01T15:06:55;6.10;97.30
20946;DHT22;10632;51.276;7.116;2023-03-01T15:09:32;6.10;97.90
20946;DHT22;10632;51.276;7.116;2023-03-01T15:12:32;6.10;97.70
20946;DHT22;10632;51.276;7.116;2023-03-01T15:15:02;6.10;97.40
20946;DHT22;10632;51.276;7.116;2023-03-01T15:17:51;6.10;97.40
20946;DHT22;10632;51.276;7.116;2023-03-01T15:20:22;6.00;97.70
20946;DHT22;10632;51.276;7.116;2023-03-01T15:22:51;6.00;97.40
20946;DHT22;10632;51.276;7.116;2023-03-01T15:25:20;6.00;97.50
20946;DHT22;10632;51.276;7.116;2023-03-01T15:27:49;5.90;98.00
20946;DHT22;10632;51.276;7.116;2023-03-01T15:30:19;5.90;97.40
20946;DHT22;10632;51.276;7.116;2023-03-01T15:32:48;5.80;96.90
20946;DHT22;10632;51.276;7.116;2023-03-01T15:35:40;5.80;97.40
20946;DHT22;10632;51.276;7.116;2023-03-01T15:38:27;5.80;97.40
20946;DHT22;10632;51.276;7.116;2023-03-01T15:40:58;5.70;97.60
20946;DHT22;10632;51.276;7.116;2023-03-01T15:43:53;5.60;98.20
20946;DHT22;10632;51.276;7.116;2023-03-01T15:46:25;5.60;98.30
20946;DHT22;10632;51.276;7.116;2023-03-01T15:48:55;5.60;98.40
20946;DHT22;10632;51.276;7.116;2023-03-01T15:51:29;5.60;98.50
20946;DHT22;10632;51.276;7.116;2023-03-01T15:53:59;5.50;98.20
20946;DHT22;10632;51.276;7.116;2023-03-01T15:56:26;5.50;98.30
20946;DHT22;10632;51.276;7.116;2023-03-01T15:58:57;5.40;98.30
20946;DHT22;10632;51.276;7.116;2023-03-01T16:01:24;5.40;98.80
20946;DHT22;10632;51.276;7.116;2023-03-01T16:03:51;5.40;99.40
20946;DHT22;10632;51.276;7.116;2023-03-01T16:06:21;5.30;98.40
20946;DHT22;10632;51.276;7.116;2023-03-01T16:08:48;5.20;98.50
20946;DHT22;10632;51.276;7.116;2023-03-01T16:11:17;5.20;99.00
20946;DHT22;10632;51.276;7.116;2023-03-01T16:13:45;5.10;99.10
20946;DHT22;10632;51.276;7.116;2023-03-01T16:16:14;5.10;99.50
20946;DHT22;10632;51.276;7.116;2023-03-01T16:18:43;5.00;99.20